Portada
METAR-TAF:

METAR-TAF

Aeroports :

Oral, Kazakhstan

latitud: 51-15N, longitud: 051-17E, altitud: 36 m

Observació

L'informe es va fer fa 21 minuts, a les 17:30 UTC
Vent 12 kt del Est
Temperatura 14°C
Humitat 63%
Pressió 1030 hPa
Visibilitat 10 km o més
sense núvols per sota de 1500 mi sense presència de cumulonimbus.

METAR: UARR 131730Z 08006MPS CAVOK 14/07 Q1030 R04/CLRD70 NOSIG RMK QFE769/1026

Hora: 22:51 (17:51 UTC)

Pronòstic

L'informe es va fer fa 51 minuts, a les 17:00 UTC
Pronòstic vàlid del 13 a les 18 UTC al 14 a les 03 UTC
Vent 12 kt del Est
Visibilitat 10 km o més
sense núvols per sota de 1500 mi sense presència de cumulonimbus.

TAF: UARR 131700Z 1318/1403 09006MPS CAVOK

Observacions i pronòstics meteorològics de més de 4000 aeroports (METAR i TAF).

Les estacions disponibles són els punts grocs i vermells al mapa.

Posi el ratolí al punt desitjat per veure el nom de l'estació.

Feu clic per veure les observacions i els pronòstics meteorològics.

Per canviar el mapa: feu clic els botons verds amb una creu de color negre per apropar; al botó verd amb un guió per allunyar la imatge; o en les fletxes verdes per a mapes adjacents.


METAR-TAF: